Airfield :







YOU CAN JOIN US ON...

 
LOGIN :

Register | Disclaimer

   EN    FR    IT 

 









Legend :    VFR   Marginal VFR   IFR   Intensive IFR   Very Intensive IFR
Visi :
Ceiling :
>= 8 km
>= 3000ft
5 to 8 km
1000 to 3000 ft
1500m to 5 km
500 to 1000 ft
800 to 1500m
200 to 500 ft
< 800m
< 200 ft
Symbols :   Thunderstorms  Fog  Heavy snow  Heavy precipitations  Wind > 20 kt






- Airport Elevation : 1188 ft


KCDA - Caledonia County

CURRENT METAR :
  • 090655Z AUTO 00000KT 7SM SCT003 BKN031 OVC050 22/21 A2980 RMK AO2 T02200211

EXPIRED METARs :
  • 090635Z AUTO 13006KT 7SM BKN031 BKN039 OVC055 22/21 A2980 RMK AO2 T02190210
  • 090615Z AUTO 13004KT 7SM SCT003 BKN027 OVC048 22/21 A2981 RMK AO2 T02180210
  • 090555Z AUTO 00000KT 4SM -RA SCT003 BKN027 OVC031 22/21 A2981 RMK AO2 T02180210 10231 20218
  • 090535Z AUTO 12003KT 7SM BKN003 BKN022 OVC036 22/21 A2981 RMK AO2 T02200211
  • 090515Z AUTO 00000KT 10SM SCT001 BKN035 OVC047 22/21 A2982 RMK AO2 T02200212
  • 090455Z AUTO 00000KT 7SM SCT001 SCT012 OVC035 22/21 A2983 RMK AO2 T02200212 403260202
  • 090435Z AUTO 00000KT 10SM SCT013 BKN037 OVC055 22/21 A2983 RMK AO2 T02220212
  • 090415Z AUTO 12005KT 7SM -DZ BKN033 OVC045 23/22 A2983 RMK AO2 T02270217

TAF N/A
KZBW FIR / North America



MET'MAP, your aeronautical weather chart ! - Copyright ORBIFLY December 2007 - Disclaimer

ORBIFLY MET'MAP TEAM :

Programming & Development : Alexandra Zaïnal
Original concept : Baudouin d'Aumeries
Technical & hardware support : Manuel Goepfert
Assistance : Marc-Olivier Méhu




SOURCES & CREDITS :

   NOAA